Andover, OH (44003)

2:27 PM EST on January 30, 2015 (GMT -0500)
Route 7 Near Downtown Pierpont | Change Station
CLOSE
Current Station
Personal Weather Station
Location: Pierpont, OH
Elevation: 1043 ft
Nearby Weather Stations

Elev 1043 ft 41.73 °N, 80.60 °W | Updated 4 seconds ago

Snow
Snow
15.4 °F
Feels Like 6 °F
N
6.0
Wind Variable Wind from WNW
Gusts 13.0 mph

Today
High -- | Low -- °F
--% Chance of Precip.
Yesterday
High -- | Low -- °F
Precip. -- in
7:36 AM 5:35 PM
Waxing Gibbous, 84% visible
Pressure 30.36 in
Visibility 0.5 miles
Clouds
Windchill 6 °F
Dew Point 9 °F
Humidity 74%
Rainfall 2.48 in
Snow Depth Not available.
UV Not available.
Pollen .10 out of 12
Air Quality Not available.
Flu Activity Not available.
METAR KHZY 301853Z AUTO 31012G20KT 1/2SM SN VV007 M09/M12 A3032 RMK AO2 SLP279 P0000 T10891117

More Conditions Fewer Conditions

Pressure 30.36 in
Visibility 0.5 miles
Clouds
Windchill 6 °F
Dew Point 9 °F
Humidity 74%
Rainfall 2.48 in
Snow Depth Not available.
UV Not available.
Pollen .10 out of 12
Air Quality Not available.
Flu Activity Not available.
METAR KHZY 301853Z AUTO 31012G20KT 1/2SM SN VV007 M09/M12 A3032 RMK AO2 SLP279 P0000 T10891117

More Conditions Fewer Conditions

10-Day Weather Forecast

Almanac

Astronomy

Jan. 30, 2015 Rise Set
Actual Time
Civil Twilight
Nautical Twilight
Astronomical Twilight
Moon
Length of Visible Light
Length of Day
Tomorrow will be .
, % of the Moon is Illuminated

Today's Extremes

State Highs State Lows

Community

WunderPhotos

Upload Photos

1,791,871 photos uploaded!

WunderBlogs® & News

Nearby

Air Quality

  Air Quality AQ Index Pollutant
Not available.

Snow Depth

Station Depth Elevation

Earthquake Activity

City Distance Mag. Time & Date
Minimum magnitude displayed is 2.5.

Coastal Water Temperatures

Place Temperature

Nearby Weather Stations